sensor_id;sensor_type;location;lat;lon;timestamp;temperature;humidity
6822;DHT22;3449;48.728;8.968;2024-02-15T00:00:02;9.00;99.90
6822;DHT22;3449;48.728;8.968;2024-02-15T00:02:33;9.10;99.90
6822;DHT22;3449;48.728;8.968;2024-02-15T00:05:00;9.10;99.90
6822;DHT22;3449;48.728;8.968;2024-02-15T00:07:27;9.10;99.90
6822;DHT22;3449;48.728;8.968;2024-02-15T00:09:55;9.10;99.90
6822;DHT22;3449;48.728;8.968;2024-02-15T00:12:24;9.10;99.90
6822;DHT22;3449;48.728;8.968;2024-02-15T00:14:51;9.10;99.90
6822;DHT22;3449;48.728;8.968;2024-02-15T00:17:18;9.10;99.90
6822;DHT22;3449;48.728;8.968;2024-02-15T00:19:45;9.00;99.90
6822;DHT22;3449;48.728;8.968;2024-02-15T00:22:12;9.00;99.90
6822;DHT22;3449;48.728;8.968;2024-02-15T00:24:39;9.00;99.90
6822;DHT22;3449;48.728;8.968;2024-02-15T00:27:08;9.00;99.90
6822;DHT22;3449;48.728;8.968;2024-02-15T00:29:36;9.00;99.90
6822;DHT22;3449;48.728;8.968;2024-02-15T00:32:03;8.90;99.90
6822;DHT22;3449;48.728;8.968;2024-02-15T00:34:31;8.90;99.90
6822;DHT22;3449;48.728;8.968;2024-02-15T00:36:58;8.90;99.90
6822;DHT22;3449;48.728;8.968;2024-02-15T00:39:25;8.80;99.90
6822;DHT22;3449;48.728;8.968;2024-02-15T00:41:52;8.70;99.90
6822;DHT22;3449;48.728;8.968;2024-02-15T00:44:22;8.70;99.90
6822;DHT22;3449;48.728;8.968;2024-02-15T00:46:49;8.60;99.90
6822;DHT22;3449;48.728;8.968;2024-02-15T00:49:16;8.60;99.90
6822;DHT22;3449;48.728;8.968;2024-02-15T00:51:46;8.50;99.90
6822;DHT22;3449;48.728;8.968;2024-02-15T00:54:13;8.50;99.90
6822;DHT22;3449;48.728;8.968;2024-02-15T00:56:40;8.50;99.90
6822;DHT22;3449;48.728;8.968;2024-02-15T00:59:07;8.50;99.90
6822;DHT22;3449;48.728;8.968;2024-02-15T01:01:35;8.40;99.90
6822;DHT22;3449;48.728;8.968;2024-02-15T01:04:03;8.40;99.90
6822;DHT22;3449;48.728;8.968;2024-02-15T01:06:30;8.40;99.90
6822;DHT22;3449;48.728;8.968;2024-02-15T01:08:59;8.40;99.90
6822;DHT22;3449;48.728;8.968;2024-02-15T01:11:27;8.50;99.90
6822;DHT22;3449;48.728;8.968;2024-02-15T01:13:54;8.50;99.90
6822;DHT22;3449;48.728;8.968;2024-02-15T01:16:21;8.50;99.90
6822;DHT22;3449;48.728;8.968;2024-02-15T01:18:49;8.50;99.90
6822;DHT22;3449;48.728;8.968;2024-02-15T01:21:16;8.50;99.90
6822;DHT22;3449;48.728;8.968;2024-02-15T01:23:44;8.50;99.90
6822;DHT22;3449;48.728;8.968;2024-02-15T01:26:11;8.50;99.90
6822;DHT22;3449;48.728;8.968;2024-02-15T01:28:40;8.50;99.90
6822;DHT22;3449;48.728;8.968;2024-02-15T01:31:08;8.40;99.90
6822;DHT22;3449;48.728;8.968;2024-02-15T01:33:36;8.40;99.90
6822;DHT22;3449;48.728;8.968;2024-02-15T01:36:05;8.30;99.90
6822;DHT22;3449;48.728;8.968;2024-02-15T01:38:32;8.30;99.90
6822;DHT22;3449;48.728;8.968;2024-02-15T01:40:59;8.20;99.90
6822;DHT22;3449;48.728;8.968;2024-02-15T01:43:26;8.20;99.90
6822;DHT22;3449;48.728;8.968;2024-02-15T01:45:52;8.10;99.90
6822;DHT22;3449;48.728;8.968;2024-02-15T01:48:19;8.10;99.90
6822;DHT22;3449;48.728;8.968;2024-02-15T01:50:46;8.00;99.90
6822;DHT22;3449;48.728;8.968;2024-02-15T01:53:15;8.00;99.90
6822;DHT22;3449;48.728;8.968;2024-02-15T01:55:43;8.00;99.90
6822;DHT22;3449;48.728;8.968;2024-02-15T01:58:11;8.00;99.90
6822;DHT22;3449;48.728;8.968;2024-02-15T02:00:38;7.90;99.90
6822;DHT22;3449;48.728;8.968;2024-02-15T02:03:06;7.80;99.90
6822;DHT22;3449;48.728;8.968;2024-02-15T02:05:33;7.80;99.90
6822;DHT22;3449;48.728;8.968;2024-02-15T02:07:59;7.80;99.90
6822;DHT22;3449;48.728;8.968;2024-02-15T02:10:31;7.70;99.90
6822;DHT22;3449;48.728;8.968;2024-02-15T02:12:59;7.70;99.90
6822;DHT22;3449;48.728;8.968;2024-02-15T02:15:28;7.60;99.90
6822;DHT22;3449;48.728;8.968;2024-02-15T02:17:56;7.60;99.90
6822;DHT22;3449;48.728;8.968;2024-02-15T02:20:25;7.50;99.90
6822;DHT22;3449;48.728;8.968;2024-02-15T02:22:53;7.50;99.90
6822;DHT22;3449;48.728;8.968;2024-02-15T02:25:23;7.40;99.90
6822;DHT22;3449;48.728;8.968;2024-02-15T02:27:52;7.40;99.90
6822;DHT22;3449;48.728;8.968;2024-02-15T02:30:19;7.40;99.90
6822;DHT22;3449;48.728;8.968;2024-02-15T02:32:48;7.30;99.90
6822;DHT22;3449;48.728;8.968;2024-02-15T02:35:14;7.30;99.90
6822;DHT22;3449;48.728;8.968;2024-02-15T02:37:42;7.20;99.90
6822;DHT22;3449;48.728;8.968;2024-02-15T02:40:10;7.20;99.90
6822;DHT22;3449;48.728;8.968;2024-02-15T02:42:48;7.20;99.90
6822;DHT22;3449;48.728;8.968;2024-02-15T02:45:15;7.20;99.90
6822;DHT22;3449;48.728;8.968;2024-02-15T02:47:42;7.10;99.90
6822;DHT22;3449;48.728;8.968;2024-02-15T02:50:09;7.10;99.90
6822;DHT22;3449;48.728;8.968;2024-02-15T02:52:36;7.00;99.90
6822;DHT22;3449;48.728;8.968;2024-02-15T02:55:04;7.00;99.90
6822;DHT22;3449;48.728;8.968;2024-02-15T02:57:34;7.00;99.90
6822;DHT22;3449;48.728;8.968;2024-02-15T03:00:03;6.90;99.90
6822;DHT22;3449;48.728;8.968;2024-02-15T03:02:33;6.90;99.90
6822;DHT22;3449;48.728;8.968;2024-02-15T03:05:03;6.90;99.90
6822;DHT22;3449;48.728;8.968;2024-02-15T03:07:32;6.80;99.90
6822;DHT22;3449;48.728;8.968;2024-02-15T03:10:00;6.80;99.90
6822;DHT22;3449;48.728;8.968;2024-02-15T03:12:27;6.80;99.90
6822;DHT22;3449;48.728;8.968;2024-02-15T03:14:55;6.70;99.90
6822;DHT22;3449;48.728;8.968;2024-02-15T03:17:25;6.70;99.90
6822;DHT22;3449;48.728;8.968;2024-02-15T03:19:51;6.60;99.90
6822;DHT22;3449;48.728;8.968;2024-02-15T03:22:18;6.60;99.90
6822;DHT22;3449;48.728;8.968;2024-02-15T03:24:46;6.50;99.90
6822;DHT22;3449;48.728;8.968;2024-02-15T03:27:12;6.50;99.90
6822;DHT22;3449;48.728;8.968;2024-02-15T03:29:39;6.40;99.90
6822;DHT22;3449;48.728;8.968;2024-02-15T03:32:06;6.40;99.90
6822;DHT22;3449;48.728;8.968;2024-02-15T03:34:36;6.30;99.90
6822;DHT22;3449;48.728;8.968;2024-02-15T03:37:05;6.30;99.90
6822;DHT22;3449;48.728;8.968;2024-02-15T03:39:32;6.30;99.90
6822;DHT22;3449;48.728;8.968;2024-02-15T03:41:59;6.30;99.90
6822;DHT22;3449;48.728;8.968;2024-02-15T03:44:26;6.30;99.90
6822;DHT22;3449;48.728;8.968;2024-02-15T03:46:52;6.20;99.90
6822;DHT22;3449;48.728;8.968;2024-02-15T03:49:20;6.30;99.90
6822;DHT22;3449;48.728;8.968;2024-02-15T03:51:49;6.30;99.90
6822;DHT22;3449;48.728;8.968;2024-02-15T03:54:16;6.20;99.90
6822;DHT22;3449;48.728;8.968;2024-02-15T03:56:47;6.30;99.90
6822;DHT22;3449;48.728;8.968;2024-02-15T03:59:18;6.30;99.90
6822;DHT22;3449;48.728;8.968;2024-02-15T04:01:50;6.40;99.90
6822;DHT22;3449;48.728;8.968;2024-02-15T04:04:17;6.40;99.90
6822;DHT22;3449;48.728;8.968;2024-02-15T04:06:46;6.50;99.90
6822;DHT22;3449;48.728;8.968;2024-02-15T04:09:15;6.60;99.90
6822;DHT22;3449;48.728;8.968;2024-02-15T04:11:42;6.60;99.90
6822;DHT22;3449;48.728;8.968;2024-02-15T04:14:09;6.60;99.90
6822;DHT22;3449;48.728;8.968;2024-02-15T04:16:36;6.70;99.90
6822;DHT22;3449;48.728;8.968;2024-02-15T04:19:03;6.70;99.90
6822;DHT22;3449;48.728;8.968;2024-02-15T04:21:30;6.70;99.90
6822;DHT22;3449;48.728;8.968;2024-02-15T04:23:57;6.70;99.90
6822;DHT22;3449;48.728;8.968;2024-02-15T04:26:26;6.70;99.90
6822;DHT22;3449;48.728;8.968;2024-02-15T04:28:55;6.70;99.90
6822;DHT22;3449;48.728;8.968;2024-02-15T04:31:22;6.70;99.90
6822;DHT22;3449;48.728;8.968;2024-02-15T04:33:52;6.60;99.90
6822;DHT22;3449;48.728;8.968;2024-02-15T04:36:19;6.70;99.90
6822;DHT22;3449;48.728;8.968;2024-02-15T04:38:49;6.60;99.90
6822;DHT22;3449;48.728;8.968;2024-02-15T04:41:16;6.60;99.90
6822;DHT22;3449;48.728;8.968;2024-02-15T04:43:47;6.60;99.90
6822;DHT22;3449;48.728;8.968;2024-02-15T04:46:14;6.60;99.90
6822;DHT22;3449;48.728;8.968;2024-02-15T04:48:41;6.60;99.90
6822;DHT22;3449;48.728;8.968;2024-02-15T04:51:08;6.60;99.90
6822;DHT22;3449;48.728;8.968;2024-02-15T04:53:36;6.60;99.90
6822;DHT22;3449;48.728;8.968;2024-02-15T04:56:04;6.60;99.90
6822;DHT22;3449;48.728;8.968;2024-02-15T04:58:37;6.60;99.90
6822;DHT22;3449;48.728;8.968;2024-02-15T05:01:12;6.60;99.90
6822;DHT22;3449;48.728;8.968;2024-02-15T05:03:39;6.60;99.90
6822;DHT22;3449;48.728;8.968;2024-02-15T05:06:07;6.60;99.90
6822;DHT22;3449;48.728;8.968;2024-02-15T05:08:35;6.60;99.90
6822;DHT22;3449;48.728;8.968;2024-02-15T05:11:08;6.60;99.90
6822;DHT22;3449;48.728;8.968;2024-02-15T05:13:38;6.60;99.90
6822;DHT22;3449;48.728;8.968;2024-02-15T05:16:05;6.50;99.90
6822;DHT22;3449;48.728;8.968;2024-02-15T05:18:34;6.60;99.90
6822;DHT22;3449;48.728;8.968;2024-02-15T05:21:01;6.50;99.90
6822;DHT22;3449;48.728;8.968;2024-02-15T05:23:29;6.50;99.90
6822;DHT22;3449;48.728;8.968;2024-02-15T05:25:56;6.50;99.90
6822;DHT22;3449;48.728;8.968;2024-02-15T05:28:23;6.50;99.90
6822;DHT22;3449;48.728;8.968;2024-02-15T05:31:09;6.40;99.90
6822;DHT22;3449;48.728;8.968;2024-02-15T05:33:38;6.30;99.90
6822;DHT22;3449;48.728;8.968;2024-02-15T05:36:06;6.30;99.90
6822;DHT22;3449;48.728;8.968;2024-02-15T05:38:34;6.30;99.90
6822;DHT22;3449;48.728;8.968;2024-02-15T05:41:01;6.30;99.90
6822;DHT22;3449;48.728;8.968;2024-02-15T05:43:28;6.30;99.90
6822;DHT22;3449;48.728;8.968;2024-02-15T05:45:55;6.30;99.90
6822;DHT22;3449;48.728;8.968;2024-02-15T05:48:23;6.30;99.90
6822;DHT22;3449;48.728;8.968;2024-02-15T05:50:51;6.30;99.90
6822;DHT22;3449;48.728;8.968;2024-02-15T05:53:20;6.30;99.90
6822;DHT22;3449;48.728;8.968;2024-02-15T05:55:47;6.30;99.90
6822;DHT22;3449;48.728;8.968;2024-02-15T05:58:15;6.30;99.90
6822;DHT22;3449;48.728;8.968;2024-02-15T06:00:42;6.30;99.90
6822;DHT22;3449;48.728;8.968;2024-02-15T06:03:10;6.30;99.90
6822;DHT22;3449;48.728;8.968;2024-02-15T06:05:38;6.40;99.90
6822;DHT22;3449;48.728;8.968;2024-02-15T06:08:06;6.40;99.90
6822;DHT22;3449;48.728;8.968;2024-02-15T06:10:33;6.40;99.90
6822;DHT22;3449;48.728;8.968;2024-02-15T06:13:00;6.40;99.90
6822;DHT22;3449;48.728;8.968;2024-02-15T06:15:27;6.40;99.90
6822;DHT22;3449;48.728;8.968;2024-02-15T06:17:53;6.40;99.90
6822;DHT22;3449;48.728;8.968;2024-02-15T06:20:20;6.40;99.90
6822;DHT22;3449;48.728;8.968;2024-02-15T06:22:48;6.40;99.90
6822;DHT22;3449;48.728;8.968;2024-02-15T06:25:16;6.30;99.90
6822;DHT22;3449;48.728;8.968;2024-02-15T06:27:46;6.30;99.90
6822;DHT22;3449;48.728;8.968;2024-02-15T06:30:14;6.30;99.90
6822;DHT22;3449;48.728;8.968;2024-02-15T06:32:59;6.30;99.90
6822;DHT22;3449;48.728;8.968;2024-02-15T06:35:43;6.20;99.90
6822;DHT22;3449;48.728;8.968;2024-02-15T06:38:27;6.20;99.90
6822;DHT22;3449;48.728;8.968;2024-02-15T06:41:14;6.00;99.90
6822;DHT22;3449;48.728;8.968;2024-02-15T06:43:40;6.10;99.90
6822;DHT22;3449;48.728;8.968;2024-02-15T06:46:07;6.00;99.90
6822;DHT22;3449;48.728;8.968;2024-02-15T06:48:36;6.00;99.90
6822;DHT22;3449;48.728;8.968;2024-02-15T06:51:03;6.00;99.90
6822;DHT22;3449;48.728;8.968;2024-02-15T06:53:31;6.10;99.90
6822;DHT22;3449;48.728;8.968;2024-02-15T06:55:58;6.10;99.90
6822;DHT22;3449;48.728;8.968;2024-02-15T06:58:26;6.10;99.90
6822;DHT22;3449;48.728;8.968;2024-02-15T07:00:53;6.10;99.90
6822;DHT22;3449;48.728;8.968;2024-02-15T07:03:20;6.10;99.90
6822;DHT22;3449;48.728;8.968;2024-02-15T07:05:49;6.10;99.90
6822;DHT22;3449;48.728;8.968;2024-02-15T07:08:16;6.10;99.90
6822;DHT22;3449;48.728;8.968;2024-02-15T07:10:43;6.20;99.90
6822;DHT22;3449;48.728;8.968;2024-02-15T07:13:10;6.30;99.90
6822;DHT22;3449;48.728;8.968;2024-02-15T07:15:39;6.40;99.90
6822;DHT22;3449;48.728;8.968;2024-02-15T07:18:06;6.60;99.90
6822;DHT22;3449;48.728;8.968;2024-02-15T07:20:33;6.70;99.90
6822;DHT22;3449;48.728;8.968;2024-02-15T07:23:00;7.00;99.90
6822;DHT22;3449;48.728;8.968;2024-02-15T07:25:27;7.20;99.90
6822;DHT22;3449;48.728;8.968;2024-02-15T07:27:54;7.30;99.90
6822;DHT22;3449;48.728;8.968;2024-02-15T07:30:22;7.40;99.90
6822;DHT22;3449;48.728;8.968;2024-02-15T07:32:50;7.60;99.90
6822;DHT22;3449;48.728;8.968;2024-02-15T07:35:18;7.90;99.90
6822;DHT22;3449;48.728;8.968;2024-02-15T07:37:54;8.10;99.90
6822;DHT22;3449;48.728;8.968;2024-02-15T07:40:24;8.20;99.90
6822;DHT22;3449;48.728;8.968;2024-02-15T07:42:56;8.40;99.90
6822;DHT22;3449;48.728;8.968;2024-02-15T07:45:22;8.60;99.90
6822;DHT22;3449;48.728;8.968;2024-02-15T07:47:51;8.70;99.90
6822;DHT22;3449;48.728;8.968;2024-02-15T07:50:18;8.80;99.90
6822;DHT22;3449;48.728;8.968;2024-02-15T07:52:48;9.00;99.90
6822;DHT22;3449;48.728;8.968;2024-02-15T07:55:17;9.00;99.90
6822;DHT22;3449;48.728;8.968;2024-02-15T07:57:43;8.90;99.90
6822;DHT22;3449;48.728;8.968;2024-02-15T08:00:12;8.80;99.90
6822;DHT22;3449;48.728;8.968;2024-02-15T08:02:42;8.70;99.90
6822;DHT22;3449;48.728;8.968;2024-02-15T08:05:11;8.60;99.90
6822;DHT22;3449;48.728;8.968;2024-02-15T08:07:42;8.50;99.90
6822;DHT22;3449;48.728;8.968;2024-02-15T08:10:10;8.60;99.90
6822;DHT22;3449;48.728;8.968;2024-02-15T08:12:39;8.50;99.90
6822;DHT22;3449;48.728;8.968;2024-02-15T08:15:07;8.70;99.90
6822;DHT22;3449;48.728;8.968;2024-02-15T08:17:38;8.80;99.90
6822;DHT22;3449;48.728;8.968;2024-02-15T08:20:07;8.90;99.90
6822;DHT22;3449;48.728;8.968;2024-02-15T08:22:35;9.00;99.90
6822;DHT22;3449;48.728;8.968;2024-02-15T08:25:06;9.00;99.90
6822;DHT22;3449;48.728;8.968;2024-02-15T08:27:36;8.90;99.90
6822;DHT22;3449;48.728;8.968;2024-02-15T08:30:07;8.80;99.90
6822;DHT22;3449;48.728;8.968;2024-02-15T08:32:36;8.80;99.90
6822;DHT22;3449;48.728;8.968;2024-02-15T08:35:03;8.70;99.90
6822;DHT22;3449;48.728;8.968;2024-02-15T08:37:31;8.70;99.90
6822;DHT22;3449;48.728;8.968;2024-02-15T08:40:01;8.70;99.90
6822;DHT22;3449;48.728;8.968;2024-02-15T08:42:28;8.70;99.90
6822;DHT22;3449;48.728;8.968;2024-02-15T08:44:54;8.80;99.90
6822;DHT22;3449;48.728;8.968;2024-02-15T08:47:21;8.90;99.90
6822;DHT22;3449;48.728;8.968;2024-02-15T08:49:48;8.80;99.90
6822;DHT22;3449;48.728;8.968;2024-02-15T08:52:15;8.80;99.90
6822;DHT22;3449;48.728;8.968;2024-02-15T08:54:44;8.90;99.90
6822;DHT22;3449;48.728;8.968;2024-02-15T08:57:12;8.90;99.90
6822;DHT22;3449;48.728;8.968;2024-02-15T08:59:39;8.90;99.90
6822;DHT22;3449;48.728;8.968;2024-02-15T09:02:08;9.10;99.90
6822;DHT22;3449;48.728;8.968;2024-02-15T09:04:35;9.20;99.90
6822;DHT22;3449;48.728;8.968;2024-02-15T09:07:01;9.30;99.90
6822;DHT22;3449;48.728;8.968;2024-02-15T09:09:29;9.30;99.90
6822;DHT22;3449;48.728;8.968;2024-02-15T09:11:57;9.40;99.90
6822;DHT22;3449;48.728;8.968;2024-02-15T09:14:25;9.40;99.90
6822;DHT22;3449;48.728;8.968;2024-02-15T09:16:52;9.60;99.90
6822;DHT22;3449;48.728;8.968;2024-02-15T09:19:19;9.70;99.90
6822;DHT22;3449;48.728;8.968;2024-02-15T09:21:46;9.80;99.90
6822;DHT22;3449;48.728;8.968;2024-02-15T09:24:13;10.00;99.90
6822;DHT22;3449;48.728;8.968;2024-02-15T09:26:41;10.10;99.90
6822;DHT22;3449;48.728;8.968;2024-02-15T09:29:08;10.30;99.90
6822;DHT22;3449;48.728;8.968;2024-02-15T09:31:36;10.30;99.90
6822;DHT22;3449;48.728;8.968;2024-02-15T09:34:05;10.60;99.90
6822;DHT22;3449;48.728;8.968;2024-02-15T09:36:34;10.70;99.90
6822;DHT22;3449;48.728;8.968;2024-02-15T09:39:03;10.80;99.90
6822;DHT22;3449;48.728;8.968;2024-02-15T09:41:30;10.90;99.90
6822;DHT22;3449;48.728;8.968;2024-02-15T09:43:57;11.30;99.90
6822;DHT22;3449;48.728;8.968;2024-02-15T09:46:24;11.40;72.80
6822;DHT22;3449;48.728;8.968;2024-02-15T09:48:56;11.70;42.20
6822;DHT22;3449;48.728;8.968;2024-02-15T09:51:25;12.10;23.10
6822;DHT22;3449;48.728;8.968;2024-02-15T09:53:52;12.20;1.00
6822;DHT22;3449;48.728;8.968;2024-02-15T09:56:24;12.30;1.00
6822;DHT22;3449;48.728;8.968;2024-02-15T09:58:54;12.40;1.00
6822;DHT22;3449;48.728;8.968;2024-02-15T10:01:23;12.40;1.00
6822;DHT22;3449;48.728;8.968;2024-02-15T10:03:50;12.60;1.00
6822;DHT22;3449;48.728;8.968;2024-02-15T10:06:19;12.80;1.00
6822;DHT22;3449;48.728;8.968;2024-02-15T10:08:46;12.90;99.90
6822;DHT22;3449;48.728;8.968;2024-02-15T10:11:13;13.20;99.90
6822;DHT22;3449;48.728;8.968;2024-02-15T10:13:41;13.20;99.90
6822;DHT22;3449;48.728;8.968;2024-02-15T10:16:17;13.50;99.90
6822;DHT22;3449;48.728;8.968;2024-02-15T10:18:44;13.70;29.20
6822;DHT22;3449;48.728;8.968;2024-02-15T10:21:25;13.90;99.90
6822;DHT22;3449;48.728;8.968;2024-02-15T10:24:09;14.20;99.90
6822;DHT22;3449;48.728;8.968;2024-02-15T10:26:36;14.30;99.90
6822;DHT22;3449;48.728;8.968;2024-02-15T10:29:07;14.50;99.90
6822;DHT22;3449;48.728;8.968;2024-02-15T10:31:35;14.70;99.90
6822;DHT22;3449;48.728;8.968;2024-02-15T10:34:05;14.40;1.00
6822;DHT22;3449;48.728;8.968;2024-02-15T10:36:34;14.40;54.40
6822;DHT22;3449;48.728;8.968;2024-02-15T10:39:19;14.60;99.90
6822;DHT22;3449;48.728;8.968;2024-02-15T10:41:47;14.70;99.90
6822;DHT22;3449;48.728;8.968;2024-02-15T10:44:16;14.90;1.00
6822;DHT22;3449;48.728;8.968;2024-02-15T10:46:45;15.20;1.00
6822;DHT22;3449;48.728;8.968;2024-02-15T10:49:12;15.20;4.70
6822;DHT22;3449;48.728;8.968;2024-02-15T10:51:44;15.40;22.80
6822;DHT22;3449;48.728;8.968;2024-02-15T10:54:12;15.70;1.00
6822;DHT22;3449;48.728;8.968;2024-02-15T10:56:43;15.60;25.80
6822;DHT22;3449;48.728;8.968;2024-02-15T10:59:16;15.60;99.90
6822;DHT22;3449;48.728;8.968;2024-02-15T11:01:45;15.60;1.00
6822;DHT22;3449;48.728;8.968;2024-02-15T11:04:15;16.00;99.90
6822;DHT22;3449;48.728;8.968;2024-02-15T11:06:43;16.10;99.90
6822;DHT22;3449;48.728;8.968;2024-02-15T11:09:11;16.30;1.00
6822;DHT22;3449;48.728;8.968;2024-02-15T11:11:40;16.40;99.90
6822;DHT22;3449;48.728;8.968;2024-02-15T11:14:26;16.30;1.00
6822;DHT22;3449;48.728;8.968;2024-02-15T11:16:54;16.30;99.90
6822;DHT22;3449;48.728;8.968;2024-02-15T11:19:40;16.40;99.90
6822;DHT22;3449;48.728;8.968;2024-02-15T11:22:09;16.50;99.90
6822;DHT22;3449;48.728;8.968;2024-02-15T11:24:37;16.70;99.90
6822;DHT22;3449;48.728;8.968;2024-02-15T11:27:11;16.80;99.90
6822;DHT22;3449;48.728;8.968;2024-02-15T11:29:49;16.70;99.90
6822;DHT22;3449;48.728;8.968;2024-02-15T11:32:41;17.00;99.90
6822;DHT22;3449;48.728;8.968;2024-02-15T11:35:13;17.00;58.00
6822;DHT22;3449;48.728;8.968;2024-02-15T11:37:53;16.60;99.90
6822;DHT22;3449;48.728;8.968;2024-02-15T11:40:21;16.60;99.90
6822;DHT22;3449;48.728;8.968;2024-02-15T11:42:53;16.60;16.40
6822;DHT22;3449;48.728;8.968;2024-02-15T11:45:20;16.40;99.90
6822;DHT22;3449;48.728;8.968;2024-02-15T11:47:48;16.70;1.00
6822;DHT22;3449;48.728;8.968;2024-02-15T11:50:16;16.60;78.00
6822;DHT22;3449;48.728;8.968;2024-02-15T11:52:44;16.50;99.90
6822;DHT22;3449;48.728;8.968;2024-02-15T11:55:12;16.50;1.00
6822;DHT22;3449;48.728;8.968;2024-02-15T11:57:39;16.60;99.90
6822;DHT22;3449;48.728;8.968;2024-02-15T12:00:22;16.40;99.90
6822;DHT22;3449;48.728;8.968;2024-02-15T12:03:08;16.30;99.90
6822;DHT22;3449;48.728;8.968;2024-02-15T12:05:52;16.60;36.20
6822;DHT22;3449;48.728;8.968;2024-02-15T12:08:38;16.50;99.90
6822;DHT22;3449;48.728;8.968;2024-02-15T12:11:23;16.20;99.90
6822;DHT22;3449;48.728;8.968;2024-02-15T12:14:12;16.30;99.90
6822;DHT22;3449;48.728;8.968;2024-02-15T12:17:01;16.40;99.90
6822;DHT22;3449;48.728;8.968;2024-02-15T12:19:46;16.30;1.00
6822;DHT22;3449;48.728;8.968;2024-02-15T12:22:14;16.30;1.00
6822;DHT22;3449;48.728;8.968;2024-02-15T12:24:41;16.40;99.90
6822;DHT22;3449;48.728;8.968;2024-02-15T12:27:09;16.40;1.00
6822;DHT22;3449;48.728;8.968;2024-02-15T12:29:37;16.60;99.70
6822;DHT22;3449;48.728;8.968;2024-02-15T12:32:04;16.70;99.90
6822;DHT22;3449;48.728;8.968;2024-02-15T12:34:31;16.60;99.90
6822;DHT22;3449;48.728;8.968;2024-02-15T12:37:07;16.50;99.90
6822;DHT22;3449;48.728;8.968;2024-02-15T12:39:35;16.70;99.90
6822;DHT22;3449;48.728;8.968;2024-02-15T12:42:02;16.70;99.90
6822;DHT22;3449;48.728;8.968;2024-02-15T12:44:34;16.30;99.90
6822;DHT22;3449;48.728;8.968;2024-02-15T12:47:01;16.10;1.00
6822;DHT22;3449;48.728;8.968;2024-02-15T12:49:29;16.00;99.90
6822;DHT22;3449;48.728;8.968;2024-02-15T12:55:09;15.90;1.00
6822;DHT22;3449;48.728;8.968;2024-02-15T12:57:36;15.90;1.00
6822;DHT22;3449;48.728;8.968;2024-02-15T13:00:08;15.90;99.90
6822;DHT22;3449;48.728;8.968;2024-02-15T13:02:40;15.80;23.80
6822;DHT22;3449;48.728;8.968;2024-02-15T13:05:07;15.80;92.10
6822;DHT22;3449;48.728;8.968;2024-02-15T13:07:35;15.90;1.00
6822;DHT22;3449;48.728;8.968;2024-02-15T13:10:03;16.00;99.90
6822;DHT22;3449;48.728;8.968;2024-02-15T13:12:32;15.90;99.90
6822;DHT22;3449;48.728;8.968;2024-02-15T13:15:02;15.90;99.90
6822;DHT22;3449;48.728;8.968;2024-02-15T13:17:31;16.10;99.90
6822;DHT22;3449;48.728;8.968;2024-02-15T13:19:59;16.00;1.00
6822;DHT22;3449;48.728;8.968;2024-02-15T13:22:30;15.70;99.90
6822;DHT22;3449;48.728;8.968;2024-02-15T13:24:57;15.90;1.00
6822;DHT22;3449;48.728;8.968;2024-02-15T13:27:24;15.90;1.00
6822;DHT22;3449;48.728;8.968;2024-02-15T13:29:51;16.00;99.90
6822;DHT22;3449;48.728;8.968;2024-02-15T13:32:18;16.10;1.00
6822;DHT22;3449;48.728;8.968;2024-02-15T13:34:48;16.20;99.90
6822;DHT22;3449;48.728;8.968;2024-02-15T13:37:18;16.40;99.90
6822;DHT22;3449;48.728;8.968;2024-02-15T13:39:47;16.30;68.10
6822;DHT22;3449;48.728;8.968;2024-02-15T13:42:14;16.20;1.00
6822;DHT22;3449;48.728;8.968;2024-02-15T13:44:42;16.20;1.00
6822;DHT22;3449;48.728;8.968;2024-02-15T13:47:09;16.10;77.60
6822;DHT22;3449;48.728;8.968;2024-02-15T13:49:37;16.10;1.00
6822;DHT22;3449;48.728;8.968;2024-02-15T13:52:06;16.00;99.90
6822;DHT22;3449;48.728;8.968;2024-02-15T13:54:33;15.90;99.90
6822;DHT22;3449;48.728;8.968;2024-02-15T13:57:00;16.00;99.90
6822;DHT22;3449;48.728;8.968;2024-02-15T13:59:27;15.80;99.90
6822;DHT22;3449;48.728;8.968;2024-02-15T14:01:55;15.80;1.00
6822;DHT22;3449;48.728;8.968;2024-02-15T14:04:22;15.70;1.00
6822;DHT22;3449;48.728;8.968;2024-02-15T14:06:49;15.60;99.90
6822;DHT22;3449;48.728;8.968;2024-02-15T14:09:17;15.50;99.90
6822;DHT22;3449;48.728;8.968;2024-02-15T14:11:45;15.40;1.00
6822;DHT22;3449;48.728;8.968;2024-02-15T14:14:11;15.30;99.90
6822;DHT22;3449;48.728;8.968;2024-02-15T14:16:38;15.30;99.90
6822;DHT22;3449;48.728;8.968;2024-02-15T14:19:05;15.30;99.90
6822;DHT22;3449;48.728;8.968;2024-02-15T14:21:32;15.30;1.00
6822;DHT22;3449;48.728;8.968;2024-02-15T14:24:05;15.40;99.90
6822;DHT22;3449;48.728;8.968;2024-02-15T14:26:35;15.40;1.00
6822;DHT22;3449;48.728;8.968;2024-02-15T14:29:02;15.50;99.90
6822;DHT22;3449;48.728;8.968;2024-02-15T14:31:29;15.60;1.00
6822;DHT22;3449;48.728;8.968;2024-02-15T14:34:14;15.60;99.90
6822;DHT22;3449;48.728;8.968;2024-02-15T14:36:43;15.70;99.90
6822;DHT22;3449;48.728;8.968;2024-02-15T14:39:11;15.70;99.90
6822;DHT22;3449;48.728;8.968;2024-02-15T14:41:40;15.70;4.10
6822;DHT22;3449;48.728;8.968;2024-02-15T14:44:09;15.70;1.00
6822;DHT22;3449;48.728;8.968;2024-02-15T14:46:35;15.60;99.90
6822;DHT22;3449;48.728;8.968;2024-02-15T14:49:02;15.70;99.90
6822;DHT22;3449;48.728;8.968;2024-02-15T14:51:30;15.70;1.00
6822;DHT22;3449;48.728;8.968;2024-02-15T14:53:58;15.70;1.00
6822;DHT22;3449;48.728;8.968;2024-02-15T14:56:25;15.80;99.90
6822;DHT22;3449;48.728;8.968;2024-02-15T14:58:53;15.70;99.90
6822;DHT22;3449;48.728;8.968;2024-02-15T15:01:20;15.60;1.00
6822;DHT22;3449;48.728;8.968;2024-02-15T15:03:53;15.60;99.90
6822;DHT22;3449;48.728;8.968;2024-02-15T15:06:21;15.60;46.20
6822;DHT22;3449;48.728;8.968;2024-02-15T15:09:05;15.60;99.90
6822;DHT22;3449;48.728;8.968;2024-02-15T15:11:50;15.50;1.00
6822;DHT22;3449;48.728;8.968;2024-02-15T15:14:35;15.40;19.30
6822;DHT22;3449;48.728;8.968;2024-02-15T15:17:03;15.30;99.90
6822;DHT22;3449;48.728;8.968;2024-02-15T15:19:30;15.30;99.90
6822;DHT22;3449;48.728;8.968;2024-02-15T15:21:57;15.30;1.00
6822;DHT22;3449;48.728;8.968;2024-02-15T15:24:24;15.30;99.90
6822;DHT22;3449;48.728;8.968;2024-02-15T15:26:50;15.20;99.90
6822;DHT22;3449;48.728;8.968;2024-02-15T15:29:17;15.20;1.00
6822;DHT22;3449;48.728;8.968;2024-02-15T15:31:45;15.10;1.00
6822;DHT22;3449;48.728;8.968;2024-02-15T15:34:12;15.10;99.90
6822;DHT22;3449;48.728;8.968;2024-02-15T15:36:39;15.00;99.90
6822;DHT22;3449;48.728;8.968;2024-02-15T15:39:06;15.00;99.90
6822;DHT22;3449;48.728;8.968;2024-02-15T15:41:35;15.00;99.90
6822;DHT22;3449;48.728;8.968;2024-02-15T15:44:03;15.00;99.90
6822;DHT22;3449;48.728;8.968;2024-02-15T15:46:30;14.90;93.80
6822;DHT22;3449;48.728;8.968;2024-02-15T15:49:00;14.80;99.90
6822;DHT22;3449;48.728;8.968;2024-02-15T15:51:27;14.80;1.00
6822;DHT22;3449;48.728;8.968;2024-02-15T15:53:54;14.70;1.00
6822;DHT22;3449;48.728;8.968;2024-02-15T15:56:21;14.70;99.90
6822;DHT22;3449;48.728;8.968;2024-02-15T15:58:49;14.60;99.90
6822;DHT22;3449;48.728;8.968;2024-02-15T16:01:22;14.60;99.90
6822;DHT22;3449;48.728;8.968;2024-02-15T16:03:49;14.60;99.90
6822;DHT22;3449;48.728;8.968;2024-02-15T16:06:18;14.50;1.00
6822;DHT22;3449;48.728;8.968;2024-02-15T16:08:45;14.40;1.00
6822;DHT22;3449;48.728;8.968;2024-02-15T16:11:14;14.40;1.00
6822;DHT22;3449;48.728;8.968;2024-02-15T16:13:42;14.30;1.00
6822;DHT22;3449;48.728;8.968;2024-02-15T16:16:12;14.20;88.30
6822;DHT22;3449;48.728;8.968;2024-02-15T16:18:40;14.10;99.90
6822;DHT22;3449;48.728;8.968;2024-02-15T16:21:07;14.10;99.90
6822;DHT22;3449;48.728;8.968;2024-02-15T16:23:36;14.00;99.90
6822;DHT22;3449;48.728;8.968;2024-02-15T16:26:03;13.90;99.90